sensor_id;sensor_type;location;lat;lon;timestamp;P1;durP1;ratioP1;P2;durP2;ratioP2
26050;SDS011;13825;53.496;10.020;2023-07-13T00:07:50;6.43;;;2.30;;
26050;SDS011;13825;53.496;10.020;2023-07-13T00:10:32;3.40;;;2.20;;
26050;SDS011;13825;53.496;10.020;2023-07-13T00:13:23;3.23;;;2.47;;
26050;SDS011;13825;53.496;10.020;2023-07-13T00:16:16;5.47;;;2.50;;
26050;SDS011;13825;53.496;10.020;2023-07-13T00:18:49;2.80;;;1.97;;
26050;SDS011;13825;53.496;10.020;2023-07-13T00:21:36;4.33;;;2.60;;
26050;SDS011;13825;53.496;10.020;2023-07-13T00:24:25;4.20;;;2.40;;
26050;SDS011;13825;53.496;10.020;2023-07-13T00:26:58;3.40;;;2.10;;
26050;SDS011;13825;53.496;10.020;2023-07-13T00:30:02;2.80;;;2.20;;
26050;SDS011;13825;53.496;10.020;2023-07-13T01:32:25;4.50;;;2.87;;
26050;SDS011;13825;53.496;10.020;2023-07-13T01:34:59;4.27;;;2.87;;
26050;SDS011;13825;53.496;10.020;2023-07-13T01:37:50;4.80;;;2.63;;
26050;SDS011;13825;53.496;10.020;2023-07-13T01:41:25;4.97;;;2.97;;
26050;SDS011;13825;53.496;10.020;2023-07-13T02:08:14;7.13;;;4.30;;
26050;SDS011;13825;53.496;10.020;2023-07-13T02:14:30;7.03;;;4.67;;
26050;SDS011;13825;53.496;10.020;2023-07-13T02:17:51;8.07;;;4.13;;
26050;SDS011;13825;53.496;10.020;2023-07-13T02:21:07;5.17;;;4.13;;
26050;SDS011;13825;53.496;10.020;2023-07-13T02:26:48;6.30;;;4.60;;
26050;SDS011;13825;53.496;10.020;2023-07-13T02:29:50;7.10;;;4.07;;
26050;SDS011;13825;53.496;10.020;2023-07-13T02:32:35;5.70;;;4.07;;
26050;SDS011;13825;53.496;10.020;2023-07-13T02:35:16;6.43;;;4.50;;
26050;SDS011;13825;53.496;10.020;2023-07-13T03:25:43;4.70;;;3.47;;
26050;SDS011;13825;53.496;10.020;2023-07-13T03:28:30;4.00;;;3.60;;
26050;SDS011;13825;53.496;10.020;2023-07-13T03:31:32;5.83;;;4.40;;
26050;SDS011;13825;53.496;10.020;2023-07-13T03:44:26;4.23;;;3.70;;
26050;SDS011;13825;53.496;10.020;2023-07-13T03:50:32;5.77;;;3.93;;
26050;SDS011;13825;53.496;10.020;2023-07-13T04:33:13;7.27;;;4.37;;
26050;SDS011;13825;53.496;10.020;2023-07-13T04:35:57;6.50;;;3.87;;
26050;SDS011;13825;53.496;10.020;2023-07-13T04:42:34;5.10;;;4.07;;
26050;SDS011;13825;53.496;10.020;2023-07-13T04:45:42;6.67;;;3.83;;
26050;SDS011;13825;53.496;10.020;2023-07-13T04:48:51;6.53;;;4.17;;
26050;SDS011;13825;53.496;10.020;2023-07-13T04:51:44;4.47;;;3.93;;
26050;SDS011;13825;53.496;10.020;2023-07-13T04:54:16;5.73;;;3.70;;
26050;SDS011;13825;53.496;10.020;2023-07-13T04:56:50;6.17;;;3.50;;
26050;SDS011;13825;53.496;10.020;2023-07-13T04:59:32;9.67;;;4.00;;
26050;SDS011;13825;53.496;10.020;2023-07-13T05:02:23;6.70;;;3.93;;
26050;SDS011;13825;53.496;10.020;2023-07-13T05:04:57;5.17;;;4.10;;
26050;SDS011;13825;53.496;10.020;2023-07-13T05:07:37;4.47;;;3.70;;
26050;SDS011;13825;53.496;10.020;2023-07-13T05:10:13;6.17;;;3.90;;
26050;SDS011;13825;53.496;10.020;2023-07-13T05:12:41;4.30;;;3.20;;
26050;SDS011;13825;53.496;10.020;2023-07-13T05:15:08;6.47;;;3.27;;
26050;SDS011;13825;53.496;10.020;2023-07-13T05:17:35;5.13;;;3.27;;
26050;SDS011;13825;53.496;10.020;2023-07-13T05:20:05;4.73;;;2.70;;
26050;SDS011;13825;53.496;10.020;2023-07-13T05:22:42;7.33;;;2.90;;
26050;SDS011;13825;53.496;10.020;2023-07-13T05:25:13;8.33;;;3.17;;
26050;SDS011;13825;53.496;10.020;2023-07-13T05:27:40;8.13;;;2.80;;
26050;SDS011;13825;53.496;10.020;2023-07-13T05:30:14;6.40;;;2.97;;
26050;SDS011;13825;53.496;10.020;2023-07-13T05:32:50;7.97;;;2.60;;
26050;SDS011;13825;53.496;10.020;2023-07-13T05:35:20;7.67;;;3.00;;
26050;SDS011;13825;53.496;10.020;2023-07-13T05:37:47;6.80;;;3.37;;
26050;SDS011;13825;53.496;10.020;2023-07-13T05:40:14;9.90;;;2.97;;
26050;SDS011;13825;53.496;10.020;2023-07-13T05:42:41;3.93;;;2.87;;
26050;SDS011;13825;53.496;10.020;2023-07-13T05:45:08;8.27;;;3.00;;
26050;SDS011;13825;53.496;10.020;2023-07-13T05:47:36;8.03;;;3.23;;
26050;SDS011;13825;53.496;10.020;2023-07-13T05:50:03;9.03;;;3.33;;
26050;SDS011;13825;53.496;10.020;2023-07-13T05:55:35;7.70;;;3.57;;
26050;SDS011;13825;53.496;10.020;2023-07-13T05:58:12;6.37;;;2.97;;
26050;SDS011;13825;53.496;10.020;2023-07-13T06:01:00;8.10;;;3.80;;
26050;SDS011;13825;53.496;10.020;2023-07-13T06:07:10;9.63;;;3.50;;
26050;SDS011;13825;53.496;10.020;2023-07-13T06:13:47;5.60;;;3.00;;
26050;SDS011;13825;53.496;10.020;2023-07-13T06:16:17;5.47;;;3.10;;
26050;SDS011;13825;53.496;10.020;2023-07-13T06:18:44;6.30;;;2.93;;
26050;SDS011;13825;53.496;10.020;2023-07-13T06:21:32;6.80;;;3.20;;
26050;SDS011;13825;53.496;10.020;2023-07-13T06:23:58;7.20;;;3.00;;
26050;SDS011;13825;53.496;10.020;2023-07-13T06:29:13;6.20;;;3.90;;
26050;SDS011;13825;53.496;10.020;2023-07-13T06:31:55;5.50;;;2.97;;
26050;SDS011;13825;53.496;10.020;2023-07-13T06:34:30;11.03;;;2.87;;
26050;SDS011;13825;53.496;10.020;2023-07-13T06:37:03;10.30;;;2.83;;
26050;SDS011;13825;53.496;10.020;2023-07-13T06:39:38;11.17;;;2.87;;
26050;SDS011;13825;53.496;10.020;2023-07-13T06:42:05;6.30;;;3.37;;
26050;SDS011;13825;53.496;10.020;2023-07-13T06:44:44;6.27;;;2.77;;
26050;SDS011;13825;53.496;10.020;2023-07-13T06:47:15;10.67;;;3.33;;
26050;SDS011;13825;53.496;10.020;2023-07-13T06:49:42;4.97;;;3.13;;
26050;SDS011;13825;53.496;10.020;2023-07-13T06:52:10;6.07;;;2.93;;
26050;SDS011;13825;53.496;10.020;2023-07-13T06:57:50;7.33;;;2.90;;
26050;SDS011;13825;53.496;10.020;2023-07-13T07:07:26;8.20;;;3.43;;
26050;SDS011;13825;53.496;10.020;2023-07-13T07:10:24;6.97;;;2.97;;
26050;SDS011;13825;53.496;10.020;2023-07-13T07:13:21;3.67;;;2.70;;
26050;SDS011;13825;53.496;10.020;2023-07-13T07:15:56;9.80;;;2.83;;
26050;SDS011;13825;53.496;10.020;2023-07-13T07:18:25;5.10;;;2.90;;
26050;SDS011;13825;53.496;10.020;2023-07-13T07:20:55;7.93;;;2.63;;
26050;SDS011;13825;53.496;10.020;2023-07-13T07:23:26;6.67;;;3.53;;
26050;SDS011;13825;53.496;10.020;2023-07-13T07:25:54;7.27;;;2.80;;
26050;SDS011;13825;53.496;10.020;2023-07-13T07:28:28;6.97;;;2.63;;
26050;SDS011;13825;53.496;10.020;2023-07-13T07:30:56;7.83;;;3.00;;
26050;SDS011;13825;53.496;10.020;2023-07-13T07:33:25;6.53;;;2.67;;
26050;SDS011;13825;53.496;10.020;2023-07-13T07:36:23;5.50;;;2.87;;
26050;SDS011;13825;53.496;10.020;2023-07-13T07:38:59;8.60;;;2.63;;
26050;SDS011;13825;53.496;10.020;2023-07-13T07:41:29;6.63;;;3.40;;
26050;SDS011;13825;53.496;10.020;2023-07-13T07:44:03;10.43;;;2.90;;
26050;SDS011;13825;53.496;10.020;2023-07-13T07:46:35;6.63;;;3.30;;
26050;SDS011;13825;53.496;10.020;2023-07-13T07:49:07;6.10;;;2.70;;
26050;SDS011;13825;53.496;10.020;2023-07-13T07:51:39;6.40;;;2.23;;
26050;SDS011;13825;53.496;10.020;2023-07-13T07:54:13;6.60;;;3.10;;
26050;SDS011;13825;53.496;10.020;2023-07-13T07:57:01;8.47;;;3.27;;
26050;SDS011;13825;53.496;10.020;2023-07-13T07:59:36;6.27;;;2.97;;
26050;SDS011;13825;53.496;10.020;2023-07-13T08:02:12;7.33;;;3.00;;
26050;SDS011;13825;53.496;10.020;2023-07-13T08:04:42;7.93;;;2.87;;
26050;SDS011;13825;53.496;10.020;2023-07-13T08:07:19;4.27;;;3.50;;
26050;SDS011;13825;53.496;10.020;2023-07-13T08:10:00;5.40;;;2.60;;
26050;SDS011;13825;53.496;10.020;2023-07-13T08:12:36;4.83;;;3.00;;
26050;SDS011;13825;53.496;10.020;2023-07-13T08:15:13;12.37;;;3.43;;
26050;SDS011;13825;53.496;10.020;2023-07-13T08:18:00;4.77;;;2.93;;
26050;SDS011;13825;53.496;10.020;2023-07-13T08:20:29;5.27;;;2.50;;
26050;SDS011;13825;53.496;10.020;2023-07-13T08:25:33;7.23;;;3.00;;
26050;SDS011;13825;53.496;10.020;2023-07-13T08:28:09;6.73;;;2.70;;
26050;SDS011;13825;53.496;10.020;2023-07-13T08:30:37;8.63;;;2.50;;
26050;SDS011;13825;53.496;10.020;2023-07-13T08:33:06;7.77;;;2.90;;
26050;SDS011;13825;53.496;10.020;2023-07-13T08:35:45;9.43;;;2.70;;
26050;SDS011;13825;53.496;10.020;2023-07-13T08:38:16;6.30;;;2.63;;
26050;SDS011;13825;53.496;10.020;2023-07-13T08:46:15;6.40;;;2.73;;
26050;SDS011;13825;53.496;10.020;2023-07-13T08:49:07;6.60;;;2.53;;
26050;SDS011;13825;53.496;10.020;2023-07-13T08:51:45;6.17;;;2.80;;
26050;SDS011;13825;53.496;10.020;2023-07-13T08:54:26;5.37;;;2.70;;
26050;SDS011;13825;53.496;10.020;2023-07-13T08:56:59;6.73;;;3.17;;
26050;SDS011;13825;53.496;10.020;2023-07-13T09:02:45;7.27;;;2.90;;
26050;SDS011;13825;53.496;10.020;2023-07-13T09:05:20;4.30;;;2.70;;
26050;SDS011;13825;53.496;10.020;2023-07-13T09:08:45;6.57;;;2.43;;
26050;SDS011;13825;53.496;10.020;2023-07-13T09:11:23;5.40;;;2.90;;
26050;SDS011;13825;53.496;10.020;2023-07-13T09:14:40;5.83;;;3.03;;
26050;SDS011;13825;53.496;10.020;2023-07-13T09:20:03;3.27;;;2.60;;
26050;SDS011;13825;53.496;10.020;2023-07-13T09:22:39;7.00;;;3.13;;
26050;SDS011;13825;53.496;10.020;2023-07-13T09:25:21;5.07;;;3.17;;
26050;SDS011;13825;53.496;10.020;2023-07-13T09:28:11;6.33;;;3.37;;
26050;SDS011;13825;53.496;10.020;2023-07-13T09:30:46;4.90;;;3.67;;
26050;SDS011;13825;53.496;10.020;2023-07-13T09:33:25;5.87;;;3.23;;
26050;SDS011;13825;53.496;10.020;2023-07-13T09:36:05;6.90;;;3.50;;
26050;SDS011;13825;53.496;10.020;2023-07-13T09:41:45;6.20;;;2.97;;
26050;SDS011;13825;53.496;10.020;2023-07-13T09:44:34;7.40;;;3.57;;
26050;SDS011;13825;53.496;10.020;2023-07-13T09:47:30;5.53;;;3.13;;
26050;SDS011;13825;53.496;10.020;2023-07-13T09:53:26;5.90;;;3.30;;
26050;SDS011;13825;53.496;10.020;2023-07-13T09:55:58;6.43;;;3.27;;
26050;SDS011;13825;53.496;10.020;2023-07-13T09:58:51;8.23;;;2.80;;
26050;SDS011;13825;53.496;10.020;2023-07-13T10:01:37;8.03;;;3.17;;
26050;SDS011;13825;53.496;10.020;2023-07-13T10:04:11;4.00;;;3.10;;
26050;SDS011;13825;53.496;10.020;2023-07-13T10:06:54;3.57;;;2.80;;
26050;SDS011;13825;53.496;10.020;2023-07-13T10:09:33;4.07;;;2.53;;
26050;SDS011;13825;53.496;10.020;2023-07-13T10:12:00;5.07;;;2.70;;
26050;SDS011;13825;53.496;10.020;2023-07-13T10:14:28;4.70;;;2.80;;
26050;SDS011;13825;53.496;10.020;2023-07-13T10:16:59;5.43;;;2.50;;
26050;SDS011;13825;53.496;10.020;2023-07-13T10:19:29;5.40;;;2.93;;
26050;SDS011;13825;53.496;10.020;2023-07-13T10:22:02;5.63;;;2.53;;
26050;SDS011;13825;53.496;10.020;2023-07-13T10:24:42;6.60;;;2.60;;
26050;SDS011;13825;53.496;10.020;2023-07-13T10:27:15;6.00;;;2.00;;
26050;SDS011;13825;53.496;10.020;2023-07-13T10:29:48;4.60;;;2.60;;
26050;SDS011;13825;53.496;10.020;2023-07-13T10:32:20;3.30;;;2.30;;
26050;SDS011;13825;53.496;10.020;2023-07-13T10:34:52;4.87;;;2.23;;
26050;SDS011;13825;53.496;10.020;2023-07-13T11:42:08;3.37;;;1.60;;
26050;SDS011;13825;53.496;10.020;2023-07-13T11:44:41;2.87;;;1.87;;
26050;SDS011;13825;53.496;10.020;2023-07-13T11:47:22;4.23;;;1.70;;
26050;SDS011;13825;53.496;10.020;2023-07-13T11:52:27;3.50;;;1.90;;
26050;SDS011;13825;53.496;10.020;2023-07-13T11:55:13;3.17;;;1.60;;
26050;SDS011;13825;53.496;10.020;2023-07-13T11:57:44;4.20;;;1.73;;
26050;SDS011;13825;53.496;10.020;2023-07-13T12:00:16;4.93;;;2.50;;
26050;SDS011;13825;53.496;10.020;2023-07-13T12:02:47;4.63;;;1.73;;
26050;SDS011;13825;53.496;10.020;2023-07-13T12:05:20;2.43;;;1.80;;
26050;SDS011;13825;53.496;10.020;2023-07-13T12:07:50;2.97;;;1.70;;
26050;SDS011;13825;53.496;10.020;2023-07-13T12:10:20;3.10;;;1.50;;
26050;SDS011;13825;53.496;10.020;2023-07-13T12:12:53;4.27;;;1.87;;
26050;SDS011;13825;53.496;10.020;2023-07-13T12:15:28;3.40;;;1.70;;
26050;SDS011;13825;53.496;10.020;2023-07-13T12:18:11;4.17;;;1.37;;
26050;SDS011;13825;53.496;10.020;2023-07-13T12:20:42;3.63;;;2.03;;
26050;SDS011;13825;53.496;10.020;2023-07-13T12:23:14;4.30;;;1.70;;
26050;SDS011;13825;53.496;10.020;2023-07-13T12:25:50;7.10;;;2.73;;
26050;SDS011;13825;53.496;10.020;2023-07-13T12:28:22;5.20;;;2.00;;
26050;SDS011;13825;53.496;10.020;2023-07-13T12:31:18;4.47;;;2.50;;
26050;SDS011;13825;53.496;10.020;2023-07-13T12:34:01;4.77;;;2.13;;
26050;SDS011;13825;53.496;10.020;2023-07-13T12:36:30;7.57;;;2.37;;
26050;SDS011;13825;53.496;10.020;2023-07-13T12:39:01;4.63;;;2.47;;
26050;SDS011;13825;53.496;10.020;2023-07-13T12:41:52;5.80;;;2.67;;
26050;SDS011;13825;53.496;10.020;2023-07-13T12:44:24;4.30;;;2.90;;
26050;SDS011;13825;53.496;10.020;2023-07-13T12:46:56;3.53;;;2.43;;
26050;SDS011;13825;53.496;10.020;2023-07-13T12:49:27;4.33;;;2.03;;
26050;SDS011;13825;53.496;10.020;2023-07-13T12:51:56;5.10;;;2.40;;
26050;SDS011;13825;53.496;10.020;2023-07-13T12:54:25;3.47;;;2.00;;
26050;SDS011;13825;53.496;10.020;2023-07-13T12:56:53;2.40;;;2.00;;
26050;SDS011;13825;53.496;10.020;2023-07-13T12:59:25;2.60;;;1.90;;
26050;SDS011;13825;53.496;10.020;2023-07-13T13:01:58;3.00;;;1.60;;
26050;SDS011;13825;53.496;10.020;2023-07-13T13:04:26;2.53;;;1.83;;
26050;SDS011;13825;53.496;10.020;2023-07-13T13:07:00;2.40;;;1.80;;
26050;SDS011;13825;53.496;10.020;2023-07-13T13:12:45;2.93;;;2.10;;
26050;SDS011;13825;53.496;10.020;2023-07-13T13:22:42;3.60;;;2.00;;
26050;SDS011;13825;53.496;10.020;2023-07-13T13:25:50;2.83;;;1.93;;
26050;SDS011;13825;53.496;10.020;2023-07-13T13:35:27;2.60;;;1.90;;
26050;SDS011;13825;53.496;10.020;2023-07-13T13:41:54;2.17;;;1.80;;
26050;SDS011;13825;53.496;10.020;2023-07-13T13:44:39;1.80;;;1.70;;
26050;SDS011;13825;53.496;10.020;2023-07-13T13:47:09;2.67;;;1.77;;
26050;SDS011;13825;53.496;10.020;2023-07-13T13:49:48;4.33;;;1.87;;
26050;SDS011;13825;53.496;10.020;2023-07-13T13:52:18;5.70;;;2.17;;
26050;SDS011;13825;53.496;10.020;2023-07-13T13:54:49;4.13;;;2.00;;
26050;SDS011;13825;53.496;10.020;2023-07-13T13:57:20;5.50;;;1.90;;
26050;SDS011;13825;53.496;10.020;2023-07-13T13:59:49;2.93;;;1.93;;
26050;SDS011;13825;53.496;10.020;2023-07-13T14:02:21;3.10;;;1.90;;
26050;SDS011;13825;53.496;10.020;2023-07-13T14:04:50;2.03;;;1.83;;
26050;SDS011;13825;53.496;10.020;2023-07-13T14:07:21;2.90;;;1.90;;
26050;SDS011;13825;53.496;10.020;2023-07-13T14:09:54;3.50;;;2.00;;
26050;SDS011;13825;53.496;10.020;2023-07-13T14:12:24;6.50;;;2.60;;
26050;SDS011;13825;53.496;10.020;2023-07-13T14:14:53;2.83;;;2.53;;
26050;SDS011;13825;53.496;10.020;2023-07-13T14:17:25;3.87;;;1.90;;
26050;SDS011;13825;53.496;10.020;2023-07-13T14:19:54;3.07;;;2.00;;
26050;SDS011;13825;53.496;10.020;2023-07-13T14:22:23;3.67;;;2.33;;
26050;SDS011;13825;53.496;10.020;2023-07-13T14:24:53;3.87;;;2.00;;
26050;SDS011;13825;53.496;10.020;2023-07-13T14:27:20;3.63;;;1.77;;
26050;SDS011;13825;53.496;10.020;2023-07-13T14:29:47;3.33;;;1.93;;
26050;SDS011;13825;53.496;10.020;2023-07-13T14:32:14;1.90;;;1.60;;
26050;SDS011;13825;53.496;10.020;2023-07-13T14:34:41;2.20;;;2.00;;
26050;SDS011;13825;53.496;10.020;2023-07-13T14:37:11;1.90;;;1.70;;
26050;SDS011;13825;53.496;10.020;2023-07-13T14:39:39;1.97;;;1.60;;
26050;SDS011;13825;53.496;10.020;2023-07-13T14:42:10;3.27;;;1.73;;
26050;SDS011;13825;53.496;10.020;2023-07-13T14:44:40;2.93;;;1.50;;
26050;SDS011;13825;53.496;10.020;2023-07-13T14:47:07;1.77;;;1.67;;
26050;SDS011;13825;53.496;10.020;2023-07-13T14:49:37;2.57;;;2.17;;
26050;SDS011;13825;53.496;10.020;2023-07-13T14:52:09;1.90;;;1.70;;
26050;SDS011;13825;53.496;10.020;2023-07-13T14:54:40;2.77;;;1.87;;
26050;SDS011;13825;53.496;10.020;2023-07-13T14:57:10;3.20;;;1.67;;
26050;SDS011;13825;53.496;10.020;2023-07-13T14:59:38;3.47;;;1.90;;
26050;SDS011;13825;53.496;10.020;2023-07-13T15:02:12;2.70;;;1.90;;
26050;SDS011;13825;53.496;10.020;2023-07-13T15:04:50;3.10;;;2.00;;
26050;SDS011;13825;53.496;10.020;2023-07-13T15:07:17;2.63;;;2.10;;
26050;SDS011;13825;53.496;10.020;2023-07-13T15:09:46;2.53;;;1.90;;
26050;SDS011;13825;53.496;10.020;2023-07-13T15:12:15;2.17;;;1.93;;
26050;SDS011;13825;53.496;10.020;2023-07-13T15:14:42;2.17;;;1.90;;
26050;SDS011;13825;53.496;10.020;2023-07-13T15:17:19;3.63;;;2.37;;
26050;SDS011;13825;53.496;10.020;2023-07-13T15:19:52;3.13;;;2.30;;
26050;SDS011;13825;53.496;10.020;2023-07-13T15:22:21;2.53;;;2.30;;
26050;SDS011;13825;53.496;10.020;2023-07-13T15:24:48;3.10;;;1.83;;
26050;SDS011;13825;53.496;10.020;2023-07-13T15:27:21;3.43;;;2.03;;
26050;SDS011;13825;53.496;10.020;2023-07-13T15:29:48;2.90;;;1.90;;
26050;SDS011;13825;53.496;10.020;2023-07-13T15:32:16;1.97;;;1.80;;
26050;SDS011;13825;53.496;10.020;2023-07-13T15:34:47;2.43;;;2.00;;
26050;SDS011;13825;53.496;10.020;2023-07-13T15:37:19;3.93;;;1.87;;
26050;SDS011;13825;53.496;10.020;2023-07-13T15:39:47;4.87;;;1.90;;
26050;SDS011;13825;53.496;10.020;2023-07-13T15:42:15;2.47;;;2.00;;
26050;SDS011;13825;53.496;10.020;2023-07-13T15:44:49;2.17;;;1.60;;
26050;SDS011;13825;53.496;10.020;2023-07-13T15:47:16;2.10;;;1.70;;
26050;SDS011;13825;53.496;10.020;2023-07-13T15:49:43;3.63;;;1.43;;
26050;SDS011;13825;53.496;10.020;2023-07-13T15:52:12;2.53;;;1.50;;
26050;SDS011;13825;53.496;10.020;2023-07-13T15:54:44;1.77;;;1.63;;
26050;SDS011;13825;53.496;10.020;2023-07-13T15:57:12;2.40;;;1.73;;
26050;SDS011;13825;53.496;10.020;2023-07-13T15:59:39;2.97;;;1.80;;
26050;SDS011;13825;53.496;10.020;2023-07-13T16:02:16;4.33;;;2.07;;
26050;SDS011;13825;53.496;10.020;2023-07-13T16:04:46;5.10;;;2.20;;
26050;SDS011;13825;53.496;10.020;2023-07-13T16:07:14;4.23;;;1.63;;
26050;SDS011;13825;53.496;10.020;2023-07-13T16:09:43;2.97;;;1.30;;
26050;SDS011;13825;53.496;10.020;2023-07-13T16:12:12;2.07;;;1.67;;
26050;SDS011;13825;53.496;10.020;2023-07-13T16:14:55;1.93;;;1.70;;
26050;SDS011;13825;53.496;10.020;2023-07-13T16:17:23;2.20;;;1.60;;
26050;SDS011;13825;53.496;10.020;2023-07-13T16:19:53;1.37;;;1.23;;
26050;SDS011;13825;53.496;10.020;2023-07-13T16:22:21;2.43;;;1.30;;
26050;SDS011;13825;53.496;10.020;2023-07-13T16:24:51;2.30;;;1.60;;
26050;SDS011;13825;53.496;10.020;2023-07-13T16:27:21;1.43;;;1.30;;
26050;SDS011;13825;53.496;10.020;2023-07-13T16:29:49;2.23;;;1.47;;
26050;SDS011;13825;53.496;10.020;2023-07-13T16:32:16;1.40;;;1.30;;
26050;SDS011;13825;53.496;10.020;2023-07-13T16:34:44;4.40;;;1.30;;
26050;SDS011;13825;53.496;10.020;2023-07-13T16:37:15;1.30;;;1.20;;
26050;SDS011;13825;53.496;10.020;2023-07-13T16:39:47;2.33;;;1.17;;
26050;SDS011;13825;53.496;10.020;2023-07-13T16:42:18;2.50;;;1.50;;
26050;SDS011;13825;53.496;10.020;2023-07-13T16:44:47;2.60;;;1.20;;
26050;SDS011;13825;53.496;10.020;2023-07-13T16:47:15;1.83;;;1.23;;
26050;SDS011;13825;53.496;10.020;2023-07-13T16:49:45;2.60;;;1.37;;
26050;SDS011;13825;53.496;10.020;2023-07-13T16:52:14;3.67;;;1.37;;
26050;SDS011;13825;53.496;10.020;2023-07-13T16:54:44;1.97;;;1.30;;
26050;SDS011;13825;53.496;10.020;2023-07-13T16:57:13;1.10;;;1.10;;
26050;SDS011;13825;53.496;10.020;2023-07-13T16:59:41;1.40;;;1.30;;
26050;SDS011;13825;53.496;10.020;2023-07-13T17:02:24;2.60;;;1.50;;
26050;SDS011;13825;53.496;10.020;2023-07-13T17:05:02;2.13;;;1.40;;
26050;SDS011;13825;53.496;10.020;2023-07-13T17:07:30;1.40;;;1.20;;
26050;SDS011;13825;53.496;10.020;2023-07-13T17:09:57;4.53;;;2.00;;
26050;SDS011;13825;53.496;10.020;2023-07-13T17:12:28;1.23;;;1.13;;
26050;SDS011;13825;53.496;10.020;2023-07-13T17:15:00;2.50;;;1.20;;
26050;SDS011;13825;53.496;10.020;2023-07-13T17:17:29;2.97;;;1.30;;
26050;SDS011;13825;53.496;10.020;2023-07-13T17:19:59;4.40;;;1.50;;
26050;SDS011;13825;53.496;10.020;2023-07-13T17:22:34;2.20;;;1.30;;
26050;SDS011;13825;53.496;10.020;2023-07-13T17:25:01;2.93;;;1.40;;
26050;SDS011;13825;53.496;10.020;2023-07-13T17:27:39;1.77;;;1.23;;
26050;SDS011;13825;53.496;10.020;2023-07-13T17:30:09;3.90;;;1.20;;
26050;SDS011;13825;53.496;10.020;2023-07-13T17:32:43;1.80;;;1.30;;
26050;SDS011;13825;53.496;10.020;2023-07-13T17:35:19;2.93;;;1.33;;
26050;SDS011;13825;53.496;10.020;2023-07-13T17:37:50;1.77;;;1.40;;
26050;SDS011;13825;53.496;10.020;2023-07-13T17:40:18;1.70;;;1.40;;
26050;SDS011;13825;53.496;10.020;2023-07-13T17:42:47;2.67;;;1.43;;
26050;SDS011;13825;53.496;10.020;2023-07-13T17:45:19;3.30;;;1.30;;
26050;SDS011;13825;53.496;10.020;2023-07-13T17:47:49;1.73;;;1.20;;
26050;SDS011;13825;53.496;10.020;2023-07-13T17:50:28;2.73;;;1.20;;
26050;SDS011;13825;53.496;10.020;2023-07-13T17:53:10;1.43;;;1.00;;
26050;SDS011;13825;53.496;10.020;2023-07-13T17:55:42;2.87;;;1.53;;
26050;SDS011;13825;53.496;10.020;2023-07-13T17:58:09;2.60;;;1.40;;
26050;SDS011;13825;53.496;10.020;2023-07-13T18:00:38;2.00;;;1.57;;
26050;SDS011;13825;53.496;10.020;2023-07-13T18:03:15;2.33;;;1.47;;
26050;SDS011;13825;53.496;10.020;2023-07-13T18:05:46;2.20;;;1.30;;
26050;SDS011;13825;53.496;10.020;2023-07-13T18:08:21;2.10;;;1.20;;
26050;SDS011;13825;53.496;10.020;2023-07-13T18:10:48;1.37;;;1.23;;
26050;SDS011;13825;53.496;10.020;2023-07-13T18:13:16;1.40;;;1.30;;
26050;SDS011;13825;53.496;10.020;2023-07-13T18:15:43;1.37;;;1.20;;
26050;SDS011;13825;53.496;10.020;2023-07-13T18:18:18;2.13;;;1.30;;
26050;SDS011;13825;53.496;10.020;2023-07-13T18:20:53;2.63;;;1.30;;
26050;SDS011;13825;53.496;10.020;2023-07-13T18:23:20;2.37;;;1.90;;
26050;SDS011;13825;53.496;10.020;2023-07-13T18:25:49;3.10;;;1.17;;
26050;SDS011;13825;53.496;10.020;2023-07-13T18:28:18;2.80;;;1.30;;
26050;SDS011;13825;53.496;10.020;2023-07-13T18:30:48;1.40;;;1.30;;
26050;SDS011;13825;53.496;10.020;2023-07-13T18:33:18;2.57;;;1.80;;
26050;SDS011;13825;53.496;10.020;2023-07-13T18:35:48;4.47;;;1.40;;
26050;SDS011;13825;53.496;10.020;2023-07-13T18:38:20;2.10;;;1.57;;
26050;SDS011;13825;53.496;10.020;2023-07-13T18:40:49;2.17;;;1.30;;
26050;SDS011;13825;53.496;10.020;2023-07-13T18:43:18;2.50;;;1.20;;
26050;SDS011;13825;53.496;10.020;2023-07-13T18:45:54;1.63;;;1.40;;
26050;SDS011;13825;53.496;10.020;2023-07-13T18:48:23;1.70;;;1.60;;
26050;SDS011;13825;53.496;10.020;2023-07-13T18:50:51;1.20;;;1.10;;
26050;SDS011;13825;53.496;10.020;2023-07-13T18:53:22;1.60;;;1.27;;
26050;SDS011;13825;53.496;10.020;2023-07-13T18:55:49;2.17;;;1.23;;
26050;SDS011;13825;53.496;10.020;2023-07-13T18:58:17;2.03;;;1.43;;
26050;SDS011;13825;53.496;10.020;2023-07-13T19:00:50;1.40;;;1.30;;
26050;SDS011;13825;53.496;10.020;2023-07-13T19:03:22;1.83;;;1.40;;
26050;SDS011;13825;53.496;10.020;2023-07-13T19:05:55;1.53;;;1.20;;
26050;SDS011;13825;53.496;10.020;2023-07-13T19:08:25;1.77;;;1.13;;
26050;SDS011;13825;53.496;10.020;2023-07-13T19:10:55;1.30;;;0.73;;
26050;SDS011;13825;53.496;10.020;2023-07-13T19:13:24;3.90;;;1.40;;
26050;SDS011;13825;53.496;10.020;2023-07-13T19:15:53;1.40;;;1.23;;
26050;SDS011;13825;53.496;10.020;2023-07-13T19:18:21;0.97;;;0.77;;
26050;SDS011;13825;53.496;10.020;2023-07-13T19:20:55;1.53;;;1.43;;
26050;SDS011;13825;53.496;10.020;2023-07-13T19:23:27;1.90;;;1.40;;
26050;SDS011;13825;53.496;10.020;2023-07-13T19:26:02;2.27;;;1.07;;
26050;SDS011;13825;53.496;10.020;2023-07-13T19:28:37;2.00;;;1.23;;
26050;SDS011;13825;53.496;10.020;2023-07-13T19:31:06;2.27;;;1.20;;
26050;SDS011;13825;53.496;10.020;2023-07-13T19:33:43;2.30;;;1.20;;
26050;SDS011;13825;53.496;10.020;2023-07-13T19:36:10;1.50;;;1.10;;
26050;SDS011;13825;53.496;10.020;2023-07-13T19:38:40;2.83;;;1.17;;
26050;SDS011;13825;53.496;10.020;2023-07-13T19:41:10;1.20;;;1.07;;
26050;SDS011;13825;53.496;10.020;2023-07-13T19:43:39;2.10;;;1.10;;
26050;SDS011;13825;53.496;10.020;2023-07-13T19:46:07;1.23;;;1.13;;
26050;SDS011;13825;53.496;10.020;2023-07-13T19:48:54;1.73;;;1.27;;
26050;SDS011;13825;53.496;10.020;2023-07-13T19:51:21;1.77;;;1.50;;
26050;SDS011;13825;53.496;10.020;2023-07-13T19:53:56;2.40;;;1.47;;
26050;SDS011;13825;53.496;10.020;2023-07-13T19:56:29;1.43;;;1.33;;
26050;SDS011;13825;53.496;10.020;2023-07-13T19:58:59;1.80;;;1.40;;
26050;SDS011;13825;53.496;10.020;2023-07-13T20:01:26;1.70;;;1.40;;
26050;SDS011;13825;53.496;10.020;2023-07-13T20:03:53;2.77;;;1.60;;
26050;SDS011;13825;53.496;10.020;2023-07-13T20:06:26;2.17;;;1.67;;
26050;SDS011;13825;53.496;10.020;2023-07-13T20:08:56;2.73;;;1.97;;
26050;SDS011;13825;53.496;10.020;2023-07-13T20:11:23;1.53;;;1.43;;
26050;SDS011;13825;53.496;10.020;2023-07-13T20:13:50;2.57;;;1.57;;
26050;SDS011;13825;53.496;10.020;2023-07-13T20:16:17;2.43;;;1.40;;
26050;SDS011;13825;53.496;10.020;2023-07-13T20:18:45;1.80;;;1.53;;
26050;SDS011;13825;53.496;10.020;2023-07-13T20:21:16;1.70;;;1.43;;
26050;SDS011;13825;53.496;10.020;2023-07-13T20:23:43;2.63;;;1.50;;
26050;SDS011;13825;53.496;10.020;2023-07-13T20:26:11;3.27;;;1.40;;
26050;SDS011;13825;53.496;10.020;2023-07-13T20:28:38;4.30;;;1.50;;
26050;SDS011;13825;53.496;10.020;2023-07-13T20:31:11;2.30;;;1.60;;
26050;SDS011;13825;53.496;10.020;2023-07-13T20:33:39;2.47;;;1.60;;
26050;SDS011;13825;53.496;10.020;2023-07-13T20:36:08;2.20;;;1.37;;
26050;SDS011;13825;53.496;10.020;2023-07-13T20:38:40;2.23;;;1.90;;
26050;SDS011;13825;53.496;10.020;2023-07-13T20:41:09;2.53;;;1.80;;
26050;SDS011;13825;53.496;10.020;2023-07-13T20:43:38;1.80;;;1.70;;
26050;SDS011;13825;53.496;10.020;2023-07-13T20:46:09;1.70;;;1.60;;
26050;SDS011;13825;53.496;10.020;2023-07-13T20:48:40;2.23;;;1.63;;
26050;SDS011;13825;53.496;10.020;2023-07-13T20:51:13;3.87;;;1.77;;